createdAt,value
2018-05-08T00:00:36.415Z,97854.45
2018-05-08T00:03:04.745Z,97852.86
2018-05-08T00:05:33.027Z,97857.33
2018-05-08T00:08:01.336Z,97858.54
2018-05-08T00:10:30.883Z,97854.92
2018-05-08T00:12:59.162Z,97845.91
2018-05-08T00:15:27.454Z,97849.16
2018-05-08T00:17:55.758Z,97848.16
2018-05-08T00:20:24.040Z,97848.47
2018-05-08T00:22:52.603Z,97844.34
2018-05-08T00:25:21.544Z,97843.28
2018-05-08T00:27:50.459Z,97855.62
2018-05-08T00:30:18.742Z,97847.09
2018-05-08T00:32:47.066Z,97848.84
2018-05-08T00:35:15.394Z,97844.27
2018-05-08T00:37:43.786Z,97843.77
2018-05-08T00:40:12.663Z,97841.02
2018-05-08T00:42:40.986Z,97842.66
2018-05-08T00:45:09.814Z,97840.03
2018-05-08T00:47:38.471Z,97837.78
2018-05-08T00:50:07.210Z,97842.96
2018-05-08T00:52:35.694Z,97846.98
2018-05-08T00:55:06.700Z,97837.56
2018-05-08T00:57:35.278Z,97839.23
2018-05-08T01:00:03.605Z,97837.64
2018-05-08T01:02:32.294Z,97834.53
2018-05-08T01:05:01.822Z,97832.55
2018-05-08T01:07:30.067Z,97834.73
2018-05-08T01:09:58.444Z,97836.88
2018-05-08T01:12:26.751Z,97835.33
2018-05-08T01:14:55.143Z,97827.77
2018-05-08T01:17:23.271Z,97825.72
2018-05-08T01:19:51.558Z,97823.35
2018-05-08T01:22:20.474Z,97821.73
2018-05-08T01:24:49.640Z,97820.20
2018-05-08T01:27:17.955Z,97825.24
2018-05-08T01:29:46.598Z,97830.61
2018-05-08T01:32:15.078Z,97828.38
2018-05-08T01:34:43.462Z,97826.52
2018-05-08T01:37:12.043Z,97825.13
2018-05-08T01:39:40.510Z,97822.88
2018-05-08T01:42:09.306Z,97822.77
2018-05-08T01:44:38.076Z,97817.38
2018-05-08T01:47:06.706Z,97824.48
2018-05-08T01:49:34.983Z,97823.10
2018-05-08T01:52:03.318Z,97817.45
2018-05-08T01:54:31.594Z,97814.23
2018-05-08T01:56:59.867Z,97810.58
2018-05-08T01:59:28.182Z,97808.70
2018-05-08T02:01:56.534Z,97802.35
2018-05-08T02:04:25.773Z,97807.27
2018-05-08T02:06:54.127Z,97801.00
2018-05-08T02:09:22.411Z,97801.78
2018-05-08T02:11:51.185Z,97794.04
2018-05-08T02:14:19.506Z,97796.41
2018-05-08T02:16:47.797Z,97804.13
2018-05-08T02:19:16.248Z,97803.63
2018-05-08T02:21:44.547Z,97801.67
2018-05-08T02:24:12.921Z,97800.17
2018-05-08T02:26:41.201Z,97798.25
2018-05-08T02:29:10.834Z,97798.12
2018-05-08T02:31:39.251Z,97799.63
2018-05-08T02:34:08.110Z,97802.50
2018-05-08T02:36:37.412Z,97810.62
2018-05-08T02:39:05.755Z,97802.48
2018-05-08T02:41:34.036Z,97806.23
2018-05-08T02:44:02.893Z,97803.78
2018-05-08T02:46:31.174Z,97802.21
2018-05-08T02:48:59.466Z,97804.97
2018-05-08T02:51:27.769Z,97794.95
2018-05-08T02:53:56.050Z,97791.09
2018-05-08T02:56:24.401Z,97785.56
2018-05-08T02:58:52.687Z,97794.59
2018-05-08T03:01:21.247Z,97793.64
2018-05-08T03:03:49.607Z,97791.22
2018-05-08T03:06:17.900Z,97791.89
2018-05-08T03:08:46.184Z,97784.31
2018-05-08T03:11:14.519Z,97776.63
2018-05-08T03:13:43.439Z,97778.98
2018-05-08T03:16:12.315Z,97781.31
2018-05-08T03:18:40.641Z,97774.38
2018-05-08T03:21:08.923Z,97777.27
2018-05-08T03:23:37.803Z,97776.89
2018-05-08T03:26:06.358Z,97779.27
2018-05-08T03:28:35.140Z,97782.73
2018-05-08T03:31:03.471Z,97784.90
2018-05-08T03:33:31.813Z,97786.11
2018-05-08T03:36:00.163Z,97779.53
2018-05-08T03:38:28.486Z,97778.54
2018-05-08T03:40:56.808Z,97776.76
2018-05-08T03:43:25.215Z,97781.26
2018-05-08T03:45:53.498Z,97783.57
2018-05-08T03:48:21.818Z,97790.15
2018-05-08T03:50:50.100Z,97782.66
2018-05-08T03:53:18.386Z,97779.61
2018-05-08T03:55:47.418Z,97787.30
2018-05-08T03:58:15.727Z,97782.42
2018-05-08T04:01:01.618Z,97788.41
2018-05-08T04:03:49.654Z,97786.38
2018-05-08T04:20:00.235Z,97792.59
2018-05-08T04:22:29.419Z,97785.84
2018-05-08T04:24:57.734Z,97777.78
2018-05-08T04:27:26.071Z,97786.98
2018-05-08T04:29:56.455Z,97782.57
2018-05-08T04:32:24.786Z,97778.56
2018-05-08T04:34:53.096Z,97772.30
2018-05-08T04:37:21.691Z,97774.85
2018-05-08T04:39:50.047Z,97774.92
2018-05-08T04:42:18.366Z,97778.25
2018-05-08T04:44:47.358Z,97772.73
2018-05-08T04:47:15.701Z,97773.70
2018-05-08T04:49:43.988Z,97778.64
2018-05-08T04:52:12.499Z,97774.27
2018-05-08T04:54:40.843Z,97777.00
2018-05-08T04:57:09.446Z,97781.92
2018-05-08T04:59:37.845Z,97783.66
2018-05-08T05:02:06.546Z,97789.41
2018-05-08T05:04:34.991Z,97791.71
2018-05-08T05:07:03.286Z,97793.09
2018-05-08T05:09:31.808Z,97790.32
2018-05-08T05:12:07.046Z,97789.30
2018-05-08T05:14:35.398Z,97791.22
2018-05-08T05:17:04.558Z,97786.84
2018-05-08T05:19:34.295Z,97778.64
2018-05-08T05:22:03.411Z,97785.36
2018-05-08T05:24:32.689Z,97779.48
2018-05-08T05:27:01.599Z,97773.48
2018-05-08T05:29:29.890Z,97772.88
2018-05-08T05:31:59.770Z,97766.16
2018-05-08T05:34:28.055Z,97765.78
2018-05-08T05:36:56.343Z,97760.64
2018-05-08T05:39:25.582Z,97758.41
2018-05-08T05:41:54.470Z,97754.06
2018-05-08T05:44:23.031Z,97757.96
2018-05-08T05:46:51.420Z,97752.55
2018-05-08T05:49:20.227Z,97746.95
2018-05-08T05:51:48.622Z,97748.06
2018-05-08T05:54:17.310Z,97747.64
2018-05-08T05:56:45.598Z,97739.45
2018-05-08T05:59:13.659Z,97739.31
2018-05-08T06:01:42.266Z,97730.55
2018-05-08T06:04:10.894Z,97736.72
2018-05-08T06:06:39.184Z,97734.89
2018-05-08T06:09:07.607Z,97736.23
2018-05-08T06:11:35.895Z,97732.41
2018-05-08T06:14:04.183Z,97736.25
2018-05-08T06:16:32.518Z,97734.38
2018-05-08T06:19:01.113Z,97733.29
2018-05-08T06:21:30.202Z,97734.04
2018-05-08T06:23:58.537Z,97737.80
2018-05-08T06:26:27.013Z,97728.42
2018-05-08T06:28:55.326Z,97725.45
2018-05-08T06:31:24.246Z,97722.97
2018-05-08T06:33:52.539Z,97724.89
2018-05-08T06:36:21.573Z,97715.01
2018-05-08T06:38:49.861Z,97715.30
2018-05-08T06:41:18.594Z,97723.05
2018-05-08T06:43:48.032Z,97716.27
2018-05-08T06:46:16.320Z,97715.56
2018-05-08T06:48:44.658Z,97714.87
2018-05-08T06:51:13.891Z,97718.89
2018-05-08T06:53:42.878Z,97725.73
2018-05-08T06:56:12.219Z,97720.54
2018-05-08T06:58:40.524Z,97720.83
2018-05-08T07:01:08.990Z,97723.25
2018-05-08T07:03:37.323Z,97723.88
2018-05-08T07:06:05.599Z,97712.51
2018-05-08T07:08:34.535Z,97717.69
2018-05-08T07:11:03.050Z,97717.63
2018-05-08T07:13:32.195Z,97713.03
2018-05-08T07:16:01.926Z,97708.19
2018-05-08T07:18:30.052Z,97708.00
2018-05-08T07:20:58.397Z,97707.62
2018-05-08T07:23:26.683Z,97704.78
2018-05-08T07:25:55.858Z,97702.45
2018-05-08T07:28:24.184Z,97711.52
2018-05-08T07:30:52.490Z,97699.95
2018-05-08T07:33:20.756Z,97694.80
2018-05-08T07:35:49.462Z,97693.64
2018-05-08T07:38:17.771Z,97694.60
2018-05-08T07:40:46.051Z,97694.34
2018-05-08T07:43:14.426Z,97687.09
2018-05-08T07:45:42.707Z,97691.59
2018-05-08T07:48:10.987Z,97692.47
2018-05-08T07:50:39.945Z,97691.23
2018-05-08T07:53:08.535Z,97693.11
2018-05-08T07:55:37.066Z,97700.00
2018-05-08T07:58:05.399Z,97701.59
2018-05-08T08:00:33.682Z,97692.77
2018-05-08T08:03:02.659Z,97691.36
2018-05-08T08:05:30.992Z,97691.25
2018-05-08T08:07:59.272Z,97695.81
2018-05-08T08:10:28.071Z,97702.09
2018-05-08T08:12:56.634Z,97705.38
2018-05-08T08:15:26.179Z,97704.61
2018-05-08T08:17:55.270Z,97700.11
2018-05-08T08:20:23.436Z,97699.97
2018-05-08T08:22:51.754Z,97691.84
2018-05-08T08:25:20.368Z,97687.48
2018-05-08T08:27:48.648Z,97685.33
2018-05-08T08:30:17.477Z,97692.41
2018-05-08T08:32:45.766Z,97684.72
2018-05-08T08:35:14.043Z,97688.56
2018-05-08T08:37:42.347Z,97685.84
2018-05-08T08:40:10.859Z,97676.80
2018-05-08T08:42:39.139Z,97673.11
2018-05-08T08:45:07.627Z,97675.91
2018-05-08T08:47:36.153Z,97675.26
2018-05-08T08:50:04.517Z,97672.72
2018-05-08T08:52:32.838Z,97670.06
2018-05-08T08:55:01.125Z,97662.06
2018-05-08T08:57:30.137Z,97662.14
2018-05-08T08:59:58.707Z,97658.63
2018-05-08T09:02:26.992Z,97660.70
2018-05-08T09:04:56.359Z,97661.61
2018-05-08T09:07:24.647Z,97653.70
2018-05-08T09:09:52.929Z,97651.30
2018-05-08T09:12:21.331Z,97654.50
2018-05-08T09:14:49.611Z,97644.05
2018-05-08T09:17:18.175Z,97644.71
2018-05-08T09:19:46.498Z,97639.45
2018-05-08T09:22:15.409Z,97634.81
2018-05-08T09:24:44.307Z,97631.63
2018-05-08T09:27:13.306Z,97629.98
2018-05-08T09:29:41.585Z,97629.68
2018-05-08T09:32:09.862Z,97622.56
2018-05-08T09:34:38.188Z,97626.86
2018-05-08T09:37:07.627Z,97613.86
2018-05-08T09:39:36.975Z,97623.84
2018-05-08T09:42:06.363Z,97616.70
2018-05-08T09:44:34.679Z,97616.78
2018-05-08T09:47:03.486Z,97613.45
2018-05-08T09:49:31.762Z,97615.14
2018-05-08T09:52:00.039Z,97604.27
2018-05-08T09:54:28.722Z,97614.65
2018-05-08T09:56:57.002Z,97610.65
2018-05-08T09:59:25.294Z,97602.78
2018-05-08T10:01:55.191Z,97601.54
2018-05-08T10:04:23.690Z,97599.52
2018-05-08T10:06:51.967Z,97591.27
2018-05-08T10:09:20.286Z,97593.20
2018-05-08T10:11:48.562Z,97591.53
2018-05-08T10:14:17.285Z,97589.78
2018-05-08T10:16:45.664Z,97590.72
2018-05-08T10:19:14.102Z,97582.98
2018-05-08T10:21:42.399Z,97574.94
2018-05-08T10:24:11.311Z,97574.27
2018-05-08T10:26:39.702Z,97566.00
2018-05-08T10:29:07.919Z,97569.15
2018-05-08T10:31:36.206Z,97571.66
2018-05-08T10:34:04.537Z,97564.08
2018-05-08T10:36:33.111Z,97570.28
2018-05-08T10:39:01.706Z,97558.72
2018-05-08T10:41:30.039Z,97562.11
2018-05-08T10:43:58.328Z,97553.34
2018-05-08T10:46:26.616Z,97551.48
2018-05-08T10:48:54.938Z,97546.55
2018-05-08T10:51:23.477Z,97543.45
2018-05-08T10:53:51.795Z,97542.85
2018-05-08T10:56:20.838Z,97529.69
2018-05-08T10:58:49.126Z,97535.52
2018-05-08T11:01:17.462Z,97531.53
2018-05-08T11:03:45.955Z,97530.44
2018-05-08T11:06:14.618Z,97522.56
2018-05-08T11:08:43.690Z,97520.41
2018-05-08T11:11:12.255Z,97518.11
2018-05-08T11:13:40.739Z,97508.13
2018-05-08T11:16:09.034Z,97507.94
2018-05-08T11:18:37.315Z,97495.50
2018-05-08T11:21:05.656Z,97492.89
2018-05-08T11:23:34.042Z,97491.46
2018-05-08T11:26:02.324Z,97493.67
2018-05-08T11:28:30.879Z,97492.73
2018-05-08T11:31:00.204Z,97480.96
2018-05-08T11:33:28.535Z,97478.34
2018-05-08T11:35:57.120Z,97473.58
2018-05-08T11:38:25.401Z,97464.31
2018-05-08T11:40:54.984Z,97471.23
2018-05-08T11:43:23.467Z,97469.81
2018-05-08T11:45:51.746Z,97465.78
2018-05-08T11:48:20.099Z,97453.75
2018-05-08T11:50:48.374Z,97460.59
2018-05-08T11:53:16.694Z,97454.66
2018-05-08T11:55:45.603Z,97465.34
2018-05-08T11:58:13.911Z,97457.64
2018-05-08T12:00:42.242Z,97454.71
2018-05-08T12:03:10.535Z,97444.19
2018-05-08T12:05:39.342Z,97453.64
2018-05-08T12:08:07.950Z,97445.38
2018-05-08T12:10:36.359Z,97453.61
2018-05-08T12:13:04.643Z,97434.05
2018-05-08T12:15:32.986Z,97433.84
2018-05-08T12:18:01.298Z,97440.81
2018-05-08T12:20:29.583Z,97450.06
2018-05-08T12:22:58.423Z,97435.97
2018-05-08T12:25:26.783Z,97432.07
2018-05-08T12:27:54.997Z,97435.21
2018-05-08T12:30:23.120Z,97434.88
2018-05-08T12:32:51.406Z,97431.89
2018-05-08T12:35:19.694Z,97431.52
2018-05-08T12:37:48.898Z,97426.58
2018-05-08T12:40:17.755Z,97429.12
2018-05-08T12:42:46.153Z,97424.84
2018-05-08T12:45:14.791Z,97422.86
2018-05-08T12:47:43.221Z,97424.06
2018-05-08T12:50:12.514Z,97419.54
2018-05-08T12:52:40.839Z,97421.41
2018-05-08T12:55:09.122Z,97418.16
2018-05-08T12:57:37.511Z,97410.96
2018-05-08T13:00:05.852Z,97409.86
2018-05-08T13:02:34.129Z,97403.31
2018-05-08T13:05:03.232Z,97394.11
2018-05-08T13:07:32.235Z,97390.66
2018-05-08T13:10:00.587Z,97386.14
2018-05-08T13:12:29.552Z,97391.67
2018-05-08T13:14:58.186Z,97384.86
2018-05-08T13:17:26.468Z,97379.55
2018-05-08T13:19:54.779Z,97382.08
2018-05-08T13:22:23.057Z,97377.84
2018-05-08T13:24:51.682Z,97369.86
2018-05-08T13:27:20.018Z,97373.60
2018-05-08T13:29:48.325Z,97364.99
2018-05-08T13:32:16.611Z,97367.40
2018-05-08T13:34:45.105Z,97379.14
2018-05-08T13:37:13.392Z,97373.47
2018-05-08T13:39:41.666Z,97362.09
2018-05-08T13:42:09.983Z,97359.72
2018-05-08T13:44:38.331Z,97356.12
2018-05-08T13:47:06.610Z,97355.64
2018-05-08T13:49:34.934Z,97352.62
2018-05-08T13:52:04.554Z,97345.09
2018-05-08T13:54:32.890Z,97349.58
2018-05-08T13:57:01.189Z,97348.20
2018-05-08T13:59:30.011Z,97338.29
2018-05-08T14:01:58.322Z,97349.66
2018-05-08T14:04:26.602Z,97340.89
2018-05-08T14:06:54.940Z,97336.13
2018-05-08T14:09:23.228Z,97343.28
2018-05-08T14:11:52.302Z,97341.91
2018-05-08T14:14:20.709Z,97332.37
2018-05-08T14:16:48.986Z,97326.20
2018-05-08T14:19:17.880Z,97327.20
2018-05-08T14:21:46.191Z,97323.25
2018-05-08T14:24:15.220Z,97323.72
2018-05-08T14:26:43.555Z,97328.31
2018-05-08T14:29:11.846Z,97319.38
2018-05-08T14:31:40.163Z,97323.95
2018-05-08T14:34:08.479Z,97319.29
2018-05-08T14:36:36.750Z,97312.58
2018-05-08T14:39:06.628Z,97309.96
2018-05-08T14:41:34.935Z,97303.92
2018-05-08T14:44:03.788Z,97301.94
2018-05-08T14:46:32.146Z,97295.40
2018-05-08T14:49:00.427Z,97298.62
2018-05-08T14:51:29.051Z,97301.73
2018-05-08T14:53:57.875Z,97291.41
2018-05-08T14:56:26.595Z,97286.10
2018-05-08T14:58:54.890Z,97285.78
2018-05-08T15:01:23.497Z,97280.17
2018-05-08T15:03:51.831Z,97278.59
2018-05-08T15:06:20.140Z,97276.14
2018-05-08T15:08:48.432Z,97284.06
2018-05-08T15:11:17.416Z,97279.41
2018-05-08T15:13:45.698Z,97279.56
2018-05-08T15:16:13.982Z,97280.44
2018-05-08T15:18:42.307Z,97274.20
2018-05-08T15:21:10.723Z,97280.13
2018-05-08T15:23:39.901Z,97280.34
2018-05-08T15:26:08.186Z,97270.10
2018-05-08T15:28:36.931Z,97274.36
2018-05-08T15:31:05.294Z,97276.54
2018-05-08T15:33:33.571Z,97274.44
2018-05-08T15:36:02.695Z,97270.34
2018-05-08T15:38:31.040Z,97263.05
2018-05-08T15:40:59.398Z,97265.67
2018-05-08T15:43:27.651Z,97257.52
2018-05-08T15:45:56.250Z,97260.43
2018-05-08T15:48:25.088Z,97257.23
2018-05-08T15:50:53.366Z,97257.79
2018-05-08T15:53:21.650Z,97264.72
2018-05-08T15:55:50.695Z,97258.94
2018-05-08T15:58:18.976Z,97258.08
2018-05-08T16:00:47.971Z,97244.19
2018-05-08T16:03:16.279Z,97242.77
2018-05-08T16:05:44.971Z,97245.59
2018-05-08T16:08:14.246Z,97243.41
2018-05-08T16:10:42.731Z,97243.97
2018-05-08T16:13:11.313Z,97237.92
2018-05-08T16:15:39.624Z,97240.78
2018-05-08T16:18:07.927Z,97233.94
2018-05-08T16:20:36.224Z,97237.90
2018-05-08T16:23:04.498Z,97234.89
2018-05-08T16:25:32.794Z,97236.25
2018-05-08T16:28:01.115Z,97236.02
2018-05-08T16:30:30.206Z,97239.91
2018-05-08T16:32:59.681Z,97238.33
2018-05-08T16:35:28.772Z,97241.37
2018-05-08T16:37:57.087Z,97243.19
2018-05-08T16:40:25.369Z,97237.48
2018-05-08T16:42:53.654Z,97246.16
2018-05-08T16:45:22.591Z,97237.20
2018-05-08T16:47:51.883Z,97239.91
2018-05-08T16:50:20.368Z,97236.44
2018-05-08T16:52:48.727Z,97235.88
2018-05-08T16:55:17.003Z,97228.50
2018-05-08T16:57:45.534Z,97227.80
2018-05-08T17:00:13.859Z,97232.80
2018-05-08T17:02:42.255Z,97226.07
2018-05-08T17:05:10.735Z,97225.16
2018-05-08T17:07:39.034Z,97225.27
2018-05-08T17:10:07.318Z,97223.68
2018-05-08T17:12:35.618Z,97226.05
2018-05-08T17:15:04.097Z,97224.76
2018-05-08T17:17:33.094Z,97232.30
2018-05-08T17:20:02.628Z,97233.86
2018-05-08T17:22:30.900Z,97231.69
2018-05-08T17:24:59.314Z,97230.50
2018-05-08T17:27:28.382Z,97234.83
2018-05-08T17:29:56.692Z,97233.59
2018-05-08T17:32:25.022Z,97237.80
2018-05-08T17:34:53.784Z,97240.75
2018-05-08T17:37:22.374Z,97239.38
2018-05-08T17:39:51.448Z,97239.11
2018-05-08T17:42:19.938Z,97237.66
2018-05-08T17:44:54.262Z,97239.88
2018-05-08T17:47:23.501Z,97239.58
2018-05-08T17:49:52.634Z,97244.12
2018-05-08T17:52:21.123Z,97242.58
2018-05-08T17:54:49.409Z,97244.34
2018-05-08T17:57:18.371Z,97249.32
2018-05-08T17:59:46.543Z,97250.27
2018-05-08T18:02:15.154Z,97249.41
2018-05-08T18:04:43.907Z,97253.45
2018-05-08T18:07:12.302Z,97248.38
2018-05-08T18:09:40.595Z,97248.44
2018-05-08T18:12:09.119Z,97251.75
2018-05-08T18:14:37.825Z,97254.48
2018-05-08T18:17:06.966Z,97252.86
2018-05-08T18:19:35.407Z,97255.32
2018-05-08T18:22:03.691Z,97258.25
2018-05-08T18:24:32.210Z,97256.48
2018-05-08T18:27:00.807Z,97259.46
2018-05-08T18:29:30.491Z,97260.48
2018-05-08T18:31:58.870Z,97260.09
2018-05-08T18:34:27.261Z,97263.47
2018-05-08T18:36:55.484Z,97261.27
2018-05-08T18:39:24.095Z,97260.33
2018-05-08T18:41:52.415Z,97264.10
2018-05-08T18:44:20.704Z,97264.15
2018-05-08T18:46:49.739Z,97268.05
2018-05-08T18:49:18.189Z,97268.83
2018-05-08T18:51:46.499Z,97273.86
2018-05-08T18:54:15.431Z,97271.79
2018-05-08T18:56:43.710Z,97277.56
2018-05-08T18:59:12.667Z,97275.98
2018-05-08T19:01:41.598Z,97274.88
2018-05-08T19:04:10.143Z,97279.24
2018-05-08T19:06:39.098Z,97278.67
2018-05-08T19:09:08.087Z,97280.03
2018-05-08T19:11:41.933Z,97276.48
2018-05-08T19:14:10.267Z,97284.41
2018-05-08T19:16:38.602Z,97284.08
2018-05-08T19:19:12.907Z,97278.23
2018-05-08T19:21:41.221Z,97277.34
2018-05-08T19:24:15.469Z,97280.27
2018-05-08T19:26:43.750Z,97282.55
2018-05-08T19:29:18.686Z,97281.58
2018-05-08T19:31:46.979Z,97282.55
2018-05-08T19:34:15.409Z,97282.27
2018-05-08T19:36:49.163Z,97281.49
2018-05-08T19:39:18.679Z,97286.92
2018-05-08T19:41:47.566Z,97288.87
2018-05-08T19:44:16.758Z,97289.93
2018-05-08T19:46:45.941Z,97287.61
2018-05-08T19:49:14.659Z,97292.14
2018-05-08T19:51:43.383Z,97286.34
2018-05-08T19:54:11.759Z,97296.40
2018-05-08T19:56:39.958Z,97295.98
2018-05-08T19:59:08.871Z,97291.70
2018-05-08T20:01:37.987Z,97294.02
2018-05-08T20:04:06.268Z,97293.59
2018-05-08T20:06:34.711Z,97292.70
2018-05-08T20:09:03.618Z,97294.47
2018-05-08T20:11:32.154Z,97300.61
2018-05-08T20:14:00.447Z,97297.94
2018-05-08T20:16:28.863Z,97298.55
2018-05-08T20:18:58.400Z,97298.39
2018-05-08T20:21:26.731Z,97292.86
2018-05-08T20:23:55.258Z,97298.16
2018-05-08T20:26:24.006Z,97296.55
2018-05-08T20:28:52.088Z,97306.02
2018-05-08T20:31:20.831Z,97303.72
2018-05-08T20:33:50.027Z,97302.55
2018-05-08T20:36:18.763Z,97303.37
2018-05-08T20:38:47.080Z,97302.76
2018-05-08T20:41:15.430Z,97301.91
2018-05-08T20:46:18.535Z,97301.44
2018-05-08T20:48:46.822Z,97295.52
2018-05-08T20:51:15.840Z,97296.96
2018-05-08T20:53:44.266Z,97294.55
2018-05-08T20:56:12.994Z,97295.03
2018-05-08T20:58:41.654Z,97292.27
2018-05-08T21:01:10.586Z,97290.30
2018-05-08T21:03:39.150Z,97293.41
2018-05-08T21:06:07.431Z,97290.30
2018-05-08T21:08:35.754Z,97289.05
2018-05-08T21:11:04.379Z,97288.55
2018-05-08T21:13:33.572Z,97290.55
2018-05-08T21:16:02.058Z,97298.73
2018-05-08T21:18:31.207Z,97295.59
2018-05-08T21:20:59.569Z,97297.06
2018-05-08T21:23:28.242Z,97295.52
2018-05-08T21:25:56.979Z,97298.22
2018-05-08T21:28:31.919Z,97295.42
2018-05-08T21:31:05.815Z,97293.00
2018-05-08T21:33:35.464Z,97294.67
2018-05-08T21:36:04.428Z,97293.09
2018-05-08T21:38:33.507Z,97294.59
2018-05-08T21:41:02.083Z,97295.16
2018-05-08T21:43:31.843Z,97293.64
2018-05-08T21:46:00.763Z,97296.08
2018-05-08T21:48:29.059Z,97294.42
2018-05-08T21:50:57.483Z,97292.34
2018-05-08T21:53:25.866Z,97296.56
2018-05-08T21:55:54.155Z,97295.78
2018-05-08T21:58:23.134Z,97294.83
2018-05-08T22:00:51.418Z,97293.34
2018-05-08T22:03:19.797Z,97301.48
2018-05-08T22:05:48.127Z,97298.80
2018-05-08T22:08:16.814Z,97296.78
2018-05-08T22:10:45.095Z,97306.65
2018-05-08T22:13:13.634Z,97303.06
2018-05-08T22:15:42.632Z,97309.89
2018-05-08T22:18:10.989Z,97312.25
2018-05-08T22:20:39.486Z,97319.47
2018-05-08T22:23:07.785Z,97317.89
2018-05-08T22:25:36.059Z,97321.98
2018-05-08T22:28:04.338Z,97327.00
2018-05-08T22:30:32.646Z,97331.81
2018-05-08T22:33:00.924Z,97330.53
2018-05-08T22:35:29.887Z,97326.37
2018-05-08T22:37:58.238Z,97323.13
2018-05-08T22:40:26.523Z,97326.00
2018-05-08T22:42:54.851Z,97326.95
2018-05-08T22:45:23.128Z,97325.67
2018-05-08T22:47:51.947Z,97322.83
2018-05-08T22:50:20.258Z,97323.16
2018-05-08T22:52:48.770Z,97327.33
2018-05-08T22:55:17.058Z,97324.64
2018-05-08T22:57:45.391Z,97326.72
2018-05-08T23:00:14.439Z,97325.74
2018-05-08T23:02:42.719Z,97328.45
2018-05-08T23:05:11.679Z,97327.42
2018-05-08T23:07:40.179Z,97326.36
2018-05-08T23:10:08.462Z,97325.64
2018-05-08T23:12:36.779Z,97325.20
2018-05-08T23:15:05.471Z,97322.48
2018-05-08T23:17:33.571Z,97320.03
2018-05-08T23:20:01.903Z,97322.20
2018-05-08T23:22:30.231Z,97322.38
2018-05-08T23:24:58.523Z,97321.71
2018-05-08T23:27:26.806Z,97321.59
2018-05-08T23:29:55.767Z,97320.27
2018-05-08T23:32:24.451Z,97317.17
2018-05-08T23:34:52.775Z,97309.95
2018-05-08T23:37:21.566Z,97309.13
2018-05-08T23:39:49.858Z,97309.08
2018-05-08T23:42:18.378Z,97312.05
2018-05-08T23:44:46.670Z,97312.33
2018-05-08T23:47:14.951Z,97309.27
2018-05-08T23:49:43.619Z,97307.48
2018-05-08T23:52:11.903Z,97313.65
2018-05-08T23:54:40.556Z,97319.72
2018-05-08T23:57:10.018Z,97307.86
2018-05-08T23:59:38.294Z,97311.11
